createdAt,value
2018-12-17T00:00:40.478Z,34.67
2018-12-17T00:03:09.296Z,31.53
2018-12-17T00:05:41.702Z,30.17
2018-12-17T00:08:09.071Z,32.83
2018-12-17T00:10:37.762Z,29.20
2018-12-17T00:13:06.437Z,33.80
2018-12-17T00:15:35.090Z,31.80
2018-12-17T00:18:03.757Z,32.60
2018-12-17T00:20:32.525Z,33.37
2018-12-17T00:23:01.261Z,35.70
2018-12-17T00:25:30.046Z,34.87
2018-12-17T00:27:58.625Z,34.20
2018-12-17T00:30:27.291Z,29.93
2018-12-17T00:32:55.956Z,30.93
2018-12-17T00:35:24.602Z,35.10
2018-12-17T00:37:53.204Z,35.17
2018-12-17T00:40:21.942Z,36.93
2018-12-17T00:42:50.614Z,37.00
2018-12-17T00:45:19.336Z,29.20
2018-12-17T00:47:47.995Z,33.97
2018-12-17T00:50:16.641Z,33.13
2018-12-17T00:52:45.282Z,33.77
2018-12-17T00:55:13.951Z,31.63
2018-12-17T00:57:42.625Z,27.90
2018-12-17T01:00:11.425Z,30.63
2018-12-17T01:02:40.007Z,27.97
2018-12-17T01:05:09.028Z,31.50
2018-12-17T01:07:37.660Z,26.63
2018-12-17T01:10:11.336Z,37.28
2018-12-17T01:12:39.963Z,30.87
2018-12-17T01:15:09.018Z,31.77
2018-12-17T01:17:37.693Z,25.83
2018-12-17T01:20:07.494Z,30.72
2018-12-17T01:22:36.117Z,28.43
2018-12-17T01:25:05.224Z,29.13
2018-12-17T01:27:33.883Z,26.57
2018-12-17T01:30:02.519Z,31.90
2018-12-17T01:32:31.414Z,27.77
2018-12-17T01:35:00.047Z,29.07
2018-12-17T01:37:28.799Z,28.43
2018-12-17T01:39:57.490Z,28.50
2018-12-17T01:42:26.167Z,30.23
2018-12-17T01:44:54.791Z,26.57
2018-12-17T01:47:23.430Z,28.63
2018-12-17T01:49:52.063Z,29.30
2018-12-17T01:52:20.722Z,28.60
2018-12-17T01:54:49.415Z,29.27
2018-12-17T01:57:18.102Z,31.17
2018-12-17T01:59:46.755Z,28.73
2018-12-17T02:02:15.388Z,30.03
2018-12-17T02:04:44.046Z,29.33
2018-12-17T02:07:12.824Z,28.83
2018-12-17T02:09:41.473Z,30.93
2018-12-17T02:12:10.131Z,30.47
2018-12-17T02:14:38.749Z,28.03
2018-12-17T02:17:07.382Z,28.73
2018-12-17T02:19:36.379Z,30.03
2018-12-17T02:22:05.063Z,29.50
2018-12-17T02:24:33.682Z,30.57
2018-12-17T02:27:02.339Z,31.33
2018-12-17T02:29:31.153Z,27.27
2018-12-17T02:31:59.787Z,28.27
2018-12-17T02:34:28.626Z,30.73
2018-12-17T02:36:57.274Z,28.93
2018-12-17T02:39:25.905Z,30.43
2018-12-17T02:41:54.530Z,27.60
2018-12-17T02:44:23.214Z,28.40
2018-12-17T02:46:51.996Z,27.37
2018-12-17T02:49:21.060Z,25.93
2018-12-17T02:51:49.799Z,28.00
2018-12-17T02:54:18.483Z,26.80
2018-12-17T02:56:47.125Z,28.47
2018-12-17T02:59:15.858Z,25.27
2018-12-17T03:01:44.518Z,29.17
2018-12-17T03:04:13.111Z,24.77
2018-12-17T03:06:41.779Z,26.00
2018-12-17T03:09:10.370Z,27.20
2018-12-17T03:11:38.968Z,29.70
2018-12-17T03:14:07.629Z,31.40
2018-12-17T03:16:36.276Z,34.57
2018-12-17T03:19:04.969Z,23.97
2018-12-17T03:21:33.650Z,28.60
2018-12-17T03:24:02.547Z,25.70
2018-12-17T03:26:31.134Z,26.53
2018-12-17T03:28:59.794Z,27.13
2018-12-17T03:31:28.619Z,35.10
2018-12-17T03:33:57.215Z,25.37
2018-12-17T03:36:25.897Z,26.30
2018-12-17T03:38:54.473Z,33.00
2018-12-17T03:41:23.134Z,28.83
2018-12-17T03:43:51.809Z,24.90
2018-12-17T03:46:20.470Z,28.63
2018-12-17T03:48:49.117Z,24.13
2018-12-17T03:51:17.763Z,28.13
2018-12-17T03:53:46.395Z,28.23
2018-12-17T03:56:15.022Z,30.60
2018-12-17T03:58:43.680Z,27.67
2018-12-17T04:01:12.277Z,24.50
2018-12-17T04:03:40.889Z,26.07
2018-12-17T04:06:09.575Z,26.90
2018-12-17T04:08:38.215Z,28.57
2018-12-17T04:11:06.919Z,36.70
2018-12-17T04:13:35.581Z,27.83
2018-12-17T04:16:04.297Z,25.20
2018-12-17T04:18:33.205Z,29.33
2018-12-17T04:21:01.893Z,24.73
2018-12-17T04:23:30.510Z,22.70
2018-12-17T04:25:59.189Z,26.63
2018-12-17T04:28:27.857Z,26.80
2018-12-17T04:30:56.475Z,24.80
2018-12-17T04:33:25.084Z,25.83
2018-12-17T04:35:53.800Z,26.30
2018-12-17T04:38:22.538Z,22.90
2018-12-17T04:40:51.194Z,26.40
2018-12-17T04:43:19.817Z,25.57
2018-12-17T04:45:48.447Z,23.50
2018-12-17T04:48:17.099Z,23.60
2018-12-17T04:50:45.902Z,20.33
2018-12-17T04:53:14.530Z,29.70
2018-12-17T04:55:43.133Z,33.90
2018-12-17T04:58:11.838Z,27.63
2018-12-17T05:00:40.456Z,31.07
2018-12-17T05:03:09.041Z,29.90
2018-12-17T05:05:37.741Z,31.50
2018-12-17T05:08:06.396Z,24.93
2018-12-17T05:10:34.996Z,25.97
2018-12-17T05:13:03.846Z,29.10
2018-12-17T05:15:32.542Z,27.13
2018-12-17T05:18:01.146Z,34.33
2018-12-17T05:20:29.839Z,27.57
2018-12-17T05:22:58.457Z,28.07
2018-12-17T05:25:27.077Z,29.60
2018-12-17T05:27:55.791Z,26.10
2018-12-17T05:30:24.446Z,30.27
2018-12-17T05:32:53.086Z,26.63
2018-12-17T05:35:21.809Z,33.07
2018-12-17T05:37:50.467Z,26.70
2018-12-17T05:40:19.171Z,28.30
2018-12-17T05:42:47.885Z,29.90
2018-12-17T05:45:16.513Z,26.27
2018-12-17T05:47:45.192Z,29.10
2018-12-17T05:50:13.837Z,35.27
2018-12-17T05:52:42.544Z,28.20
2018-12-17T05:55:11.176Z,31.97
2018-12-17T05:57:39.885Z,29.87
2018-12-17T06:00:08.873Z,29.30
2018-12-17T06:02:37.512Z,36.70
2018-12-17T06:05:07.004Z,32.23
2018-12-17T06:07:35.650Z,32.03
2018-12-17T06:10:05.486Z,32.57
2018-12-17T06:12:34.203Z,30.17
2018-12-17T06:15:02.839Z,33.63
2018-12-17T06:17:31.507Z,41.93
2018-12-17T06:20:00.188Z,26.37
2018-12-17T06:22:28.885Z,29.53
2018-12-17T06:24:57.540Z,33.13
2018-12-17T06:27:26.264Z,33.53
2018-12-17T06:29:54.904Z,41.70
2018-12-17T06:32:23.587Z,34.17
2018-12-17T06:34:52.246Z,32.83
2018-12-17T06:37:20.850Z,34.87
2018-12-17T06:39:49.467Z,32.33
2018-12-17T06:42:18.268Z,36.90
2018-12-17T06:44:46.953Z,37.13
2018-12-17T06:47:15.648Z,34.70
2018-12-17T06:49:44.368Z,34.87
2018-12-17T06:52:13.007Z,34.13
2018-12-17T06:54:41.809Z,39.57
2018-12-17T06:57:10.445Z,33.17
2018-12-17T06:59:45.745Z,34.67
2018-12-17T07:02:14.793Z,37.50
2018-12-17T07:04:43.420Z,37.40
2018-12-17T07:07:12.060Z,37.40
2018-12-17T07:09:40.735Z,36.63
2018-12-17T07:12:09.380Z,39.57
2018-12-17T07:14:38.047Z,37.73
2018-12-17T07:17:06.767Z,33.53
2018-12-17T07:19:35.393Z,37.87
2018-12-17T07:22:04.010Z,32.93
2018-12-17T07:24:32.791Z,41.43
2018-12-17T07:27:01.471Z,36.67
2018-12-17T07:29:30.233Z,33.63
2018-12-17T07:31:58.889Z,34.40
2018-12-17T07:34:28.162Z,31.70
2018-12-17T07:36:57.159Z,42.13
2018-12-17T07:39:26.631Z,29.53
2018-12-17T07:41:55.293Z,39.13
2018-12-17T07:44:23.974Z,35.77
2018-12-17T07:46:52.603Z,34.90
2018-12-17T07:49:21.250Z,31.93
2018-12-17T07:51:50.325Z,36.30
2018-12-17T07:54:18.955Z,32.73
2018-12-17T07:56:47.622Z,35.33
2018-12-17T07:59:16.333Z,31.13
2018-12-17T08:01:45.036Z,31.50
2018-12-17T08:04:13.744Z,34.60
2018-12-17T08:06:42.478Z,35.87
2018-12-17T08:09:11.236Z,39.93
2018-12-17T08:11:39.949Z,36.70
2018-12-17T08:14:08.930Z,33.80
2018-12-17T08:16:37.676Z,27.97
2018-12-17T08:19:06.417Z,40.53
2018-12-17T08:21:35.131Z,40.07
2018-12-17T08:24:04.028Z,34.17
2018-12-17T08:26:32.716Z,37.50
2018-12-17T08:29:01.360Z,34.37
2018-12-17T08:31:30.022Z,34.60
2018-12-17T08:33:58.654Z,30.37
2018-12-17T08:36:27.351Z,30.23
2018-12-17T08:38:56.045Z,33.10
2018-12-17T08:41:24.736Z,31.37
2018-12-17T08:43:53.531Z,28.67
2018-12-17T08:46:22.224Z,32.07
2018-12-17T08:48:50.929Z,33.53
2018-12-17T08:51:19.671Z,26.10
2018-12-17T08:53:49.353Z,31.13
2018-12-17T08:56:19.862Z,29.47
2018-12-17T08:58:50.522Z,27.77
2018-12-17T09:01:19.208Z,33.87
2018-12-17T09:03:50.478Z,27.57
2018-12-17T09:06:20.579Z,30.17
2018-12-17T09:08:53.230Z,31.87
2018-12-17T09:11:25.482Z,33.37
2018-12-17T09:13:55.868Z,30.20
2018-12-17T09:16:25.157Z,30.20
2018-12-17T09:18:54.155Z,30.37
2018-12-17T09:21:24.836Z,34.47
2018-12-17T09:23:54.909Z,32.90
2018-12-17T09:26:27.534Z,38.30
2018-12-17T09:28:56.313Z,36.13
2018-12-17T09:31:27.694Z,33.33
2018-12-17T09:33:59.688Z,39.37
2018-12-17T09:36:32.103Z,36.83
2018-12-17T09:39:03.491Z,37.47
2018-12-17T09:41:35.772Z,32.10
2018-12-17T09:44:07.809Z,33.47
2018-12-17T09:46:39.487Z,28.30
2018-12-17T09:49:11.872Z,32.73
2018-12-17T09:51:42.664Z,39.37
2018-12-17T09:54:14.242Z,28.30
2018-12-17T09:56:43.984Z,28.33
2018-12-17T09:59:13.699Z,37.63
2018-12-17T10:01:49.162Z,30.13
2018-12-17T10:04:17.893Z,29.37
2018-12-17T10:06:46.663Z,29.90
2018-12-17T10:09:15.556Z,29.37
2018-12-17T10:11:44.380Z,32.87
2018-12-17T10:14:13.102Z,26.53
2018-12-17T10:16:41.874Z,27.83
2018-12-17T10:19:10.618Z,27.40
2018-12-17T10:21:39.373Z,28.23
2018-12-17T10:24:08.288Z,34.00
2018-12-17T10:26:36.972Z,26.27
2018-12-17T10:29:05.769Z,29.57
2018-12-17T10:31:34.430Z,30.97
2018-12-17T10:34:03.114Z,26.77
2018-12-17T10:36:31.796Z,28.40
2018-12-17T10:39:00.677Z,25.63
2018-12-17T10:41:29.376Z,29.23
2018-12-17T10:43:58.067Z,27.13
2018-12-17T10:46:27.023Z,25.13
2018-12-17T10:48:55.738Z,26.07
2018-12-17T10:51:24.467Z,26.03
2018-12-17T10:53:53.096Z,24.13
2018-12-17T10:56:21.862Z,25.67
2018-12-17T10:58:50.641Z,25.40
2018-12-17T11:01:24.516Z,22.53
2018-12-17T11:03:58.263Z,21.60
2018-12-17T11:06:27.392Z,23.80
2018-12-17T11:08:56.149Z,21.10
2018-12-17T11:11:24.814Z,28.17
2018-12-17T11:13:53.483Z,24.90
2018-12-17T11:16:22.168Z,21.03
2018-12-17T11:18:50.861Z,22.93
2018-12-17T11:21:19.596Z,20.27
2018-12-17T11:23:48.267Z,21.37
2018-12-17T11:26:17.009Z,22.63
2018-12-17T11:28:45.741Z,17.60
2018-12-17T11:31:14.381Z,18.93
2018-12-17T11:33:43.065Z,19.10
2018-12-17T11:36:11.769Z,21.00
2018-12-17T11:38:40.420Z,20.43
2018-12-17T11:41:09.096Z,20.50
2018-12-17T11:43:43.660Z,20.03
2018-12-17T11:46:10.569Z,15.00
2018-12-17T11:48:40.272Z,20.07
2018-12-17T11:51:08.943Z,16.30
2018-12-17T11:53:37.780Z,17.40
2018-12-17T11:56:06.484Z,17.57
2018-12-17T11:58:35.146Z,14.73
2018-12-17T12:01:06.181Z,17.00
2018-12-17T12:03:38.073Z,15.53
2018-12-17T12:06:13.698Z,17.63
2018-12-17T12:08:37.570Z,16.10
2018-12-17T12:11:06.331Z,15.73
2018-12-17T12:13:35.005Z,15.77
2018-12-17T12:16:03.676Z,16.27
2018-12-17T12:18:32.508Z,15.30
2018-12-17T12:21:01.202Z,13.93
2018-12-17T12:23:30.085Z,14.17
2018-12-17T12:25:58.743Z,13.87
2018-12-17T12:28:27.465Z,15.80
2018-12-17T12:31:00.435Z,15.57
2018-12-17T12:33:26.847Z,13.70
2018-12-17T12:35:55.493Z,15.87
2018-12-17T12:38:24.135Z,15.17
2018-12-17T12:40:52.797Z,13.63
2018-12-17T12:43:21.488Z,16.73
2018-12-17T12:45:50.140Z,11.90
2018-12-17T12:48:18.831Z,15.03
2018-12-17T12:50:47.483Z,14.17
2018-12-17T12:53:16.180Z,14.30
2018-12-17T12:55:44.918Z,12.30
2018-12-17T12:58:13.626Z,13.83
2018-12-17T13:00:42.326Z,14.53
2018-12-17T13:03:11.051Z,12.13
2018-12-17T13:05:39.800Z,13.33
2018-12-17T13:08:08.499Z,12.63
2018-12-17T13:10:37.699Z,15.83
2018-12-17T13:13:06.585Z,13.70
2018-12-17T13:15:35.247Z,12.77
2018-12-17T13:18:04.008Z,11.90
2018-12-17T13:20:32.737Z,12.23
2018-12-17T13:23:01.428Z,11.60
2018-12-17T13:25:34.835Z,12.03
2018-12-17T13:28:03.742Z,12.03
2018-12-17T13:30:32.489Z,12.70
2018-12-17T13:33:01.151Z,12.67
2018-12-17T13:35:29.867Z,14.80
2018-12-17T13:37:58.519Z,14.73
2018-12-17T13:40:27.286Z,13.70
2018-12-17T13:42:55.990Z,13.40
2018-12-17T13:45:24.728Z,12.50
2018-12-17T13:47:53.471Z,12.90
2018-12-17T13:50:30.160Z,13.10
2018-12-17T13:53:34.040Z,15.30
2018-12-17T13:56:02.883Z,13.13
2018-12-17T13:58:31.565Z,14.00
2018-12-17T14:01:00.228Z,14.33
2018-12-17T14:03:28.949Z,13.27
2018-12-17T14:05:57.668Z,12.23
2018-12-17T14:08:26.327Z,12.43
2018-12-17T14:10:55.111Z,12.97
2018-12-17T14:13:23.951Z,12.90
2018-12-17T14:15:55.370Z,16.17
2018-12-17T14:18:29.355Z,14.33
2018-12-17T14:21:03.320Z,13.23
2018-12-17T14:23:32.102Z,12.57
2018-12-17T14:26:00.774Z,14.57
2018-12-17T14:28:30.115Z,12.30
2018-12-17T14:30:58.764Z,14.40
2018-12-17T14:33:27.525Z,13.70
2018-12-17T14:36:01.291Z,14.87
2018-12-17T14:38:29.992Z,12.93
2018-12-17T14:40:58.628Z,13.67
2018-12-17T14:43:27.450Z,14.50
2018-12-17T14:45:56.141Z,12.50
2018-12-17T14:48:24.821Z,15.27
2018-12-17T14:50:53.557Z,15.13
2018-12-17T14:53:22.222Z,15.77
2018-12-17T14:55:50.913Z,14.07
2018-12-17T14:58:19.603Z,15.50
2018-12-17T15:00:48.280Z,12.57
2018-12-17T15:03:16.985Z,15.80
2018-12-17T15:05:45.691Z,14.90
2018-12-17T15:08:14.341Z,13.87
2018-12-17T15:10:43.091Z,16.30
2018-12-17T15:13:11.786Z,15.53
2018-12-17T15:15:40.486Z,16.80
2018-12-17T15:18:09.159Z,13.23
2018-12-17T15:20:37.921Z,16.00
2018-12-17T15:23:06.612Z,14.27
2018-12-17T15:25:35.304Z,16.13
2018-12-17T15:28:04.067Z,22.63
2018-12-17T15:30:32.799Z,24.83
2018-12-17T15:33:01.566Z,18.03
2018-12-17T15:35:30.270Z,17.50
2018-12-17T15:37:58.983Z,18.13
2018-12-17T15:40:27.721Z,17.83
2018-12-17T15:42:56.460Z,17.20
2018-12-17T15:45:25.093Z,18.53
2018-12-17T15:47:53.745Z,18.27
2018-12-17T15:50:22.557Z,18.33
2018-12-17T15:52:51.282Z,17.27
2018-12-17T15:55:19.913Z,19.67
2018-12-17T15:57:48.788Z,18.00
2018-12-17T16:00:17.509Z,21.77
2018-12-17T16:02:46.238Z,17.80
2018-12-17T16:05:14.951Z,17.57
2018-12-17T16:07:43.673Z,21.10
2018-12-17T16:10:12.389Z,22.23
2018-12-17T16:12:41.115Z,19.23
2018-12-17T16:15:09.994Z,20.17
2018-12-17T16:17:38.712Z,18.97
2018-12-17T16:20:08.934Z,20.93
2018-12-17T16:22:37.855Z,21.73
2018-12-17T16:25:07.023Z,23.03
2018-12-17T16:27:35.793Z,21.77
2018-12-17T16:30:05.335Z,18.87
2018-12-17T16:32:34.221Z,22.10
2018-12-17T16:35:02.986Z,19.60
2018-12-17T16:37:31.897Z,18.53
2018-12-17T16:40:00.896Z,19.67
2018-12-17T16:42:29.592Z,18.73
2018-12-17T16:44:58.260Z,19.83
2018-12-17T16:47:26.979Z,19.40
2018-12-17T16:49:55.714Z,21.30
2018-12-17T16:52:24.427Z,19.70
2018-12-17T16:54:53.092Z,19.90
2018-12-17T16:57:21.779Z,17.87
2018-12-17T16:59:50.564Z,16.67
2018-12-17T17:02:19.193Z,16.47
2018-12-17T17:04:48.848Z,18.77
2018-12-17T17:07:17.532Z,18.67
2018-12-17T17:09:46.170Z,18.63
2018-12-17T17:12:15.041Z,17.40
2018-12-17T17:14:43.704Z,16.33
2018-12-17T17:17:12.479Z,15.57
2018-12-17T17:19:41.224Z,17.53
2018-12-17T17:22:10.216Z,17.83
2018-12-17T17:24:38.896Z,17.33
2018-12-17T17:27:07.610Z,15.77
2018-12-17T17:29:36.313Z,14.93
2018-12-17T17:32:11.445Z,15.20
2018-12-17T17:34:35.743Z,16.83
2018-12-17T17:37:04.564Z,17.57
2018-12-17T17:39:33.236Z,15.83
2018-12-17T17:42:01.920Z,15.17
2018-12-17T17:44:30.620Z,17.30
2018-12-17T17:46:59.298Z,17.70
2018-12-17T17:49:27.989Z,16.20
2018-12-17T17:51:56.788Z,15.67
2018-12-17T17:54:29.069Z,17.17
2018-12-17T17:56:59.760Z,11.57
2018-12-17T17:59:29.418Z,14.77
2018-12-17T18:01:58.543Z,12.70
2018-12-17T18:04:27.566Z,19.33
2018-12-17T18:06:56.366Z,13.20
2018-12-17T18:09:25.418Z,17.60
2018-12-17T18:11:55.811Z,16.10
2018-12-17T18:14:25.115Z,14.83
2018-12-17T18:16:53.807Z,13.83
2018-12-17T18:19:25.480Z,15.70
2018-12-17T18:21:54.270Z,16.13
2018-12-17T18:24:34.717Z,14.40
2018-12-17T18:27:12.302Z,15.53
2018-12-17T18:29:42.883Z,12.00
2018-12-17T18:32:11.615Z,13.67
2018-12-17T18:34:41.336Z,14.10
2018-12-17T18:37:11.469Z,16.63
2018-12-17T18:39:40.292Z,12.00
2018-12-17T18:42:10.413Z,12.43
2018-12-17T18:44:45.435Z,12.27
2018-12-17T18:47:14.210Z,9.23
2018-12-17T18:49:46.538Z,11.83
2018-12-17T18:52:17.305Z,15.77
2018-12-17T18:54:49.111Z,11.30
2018-12-17T18:57:20.029Z,12.73
2018-12-17T18:59:49.810Z,12.43
2018-12-17T19:02:21.109Z,12.07
2018-12-17T19:04:51.186Z,12.13
2018-12-17T19:07:20.424Z,11.73
2018-12-17T19:09:49.789Z,11.00
2018-12-17T19:12:18.479Z,11.20
2018-12-17T19:14:47.158Z,13.50
2018-12-17T19:17:15.893Z,11.07
2018-12-17T19:19:47.435Z,11.03
2018-12-17T19:22:18.656Z,13.03
2018-12-17T19:24:50.198Z,14.00
2018-12-17T19:27:19.339Z,13.80
2018-12-17T19:29:50.514Z,10.83
2018-12-17T19:32:19.295Z,11.30
2018-12-17T19:34:49.167Z,11.13
2018-12-17T19:37:20.609Z,15.57
2018-12-17T19:39:49.376Z,16.27
2018-12-17T19:42:18.265Z,12.00
2018-12-17T19:44:50.937Z,12.80
2018-12-17T19:47:20.088Z,12.93
2018-12-17T19:49:48.853Z,10.30
2018-12-17T19:52:18.564Z,14.67
2018-12-17T19:54:47.302Z,9.67
2018-12-17T19:57:17.289Z,13.70
2018-12-17T19:59:46.022Z,14.90
2018-12-17T20:02:20.704Z,9.87
2018-12-17T20:04:56.583Z,10.87
2018-12-17T20:07:32.474Z,11.73
2018-12-17T20:10:17.409Z,13.20
2018-12-17T20:12:50.220Z,11.10
2018-12-17T20:18:47.939Z,13.03
2018-12-17T20:21:17.449Z,13.40
2018-12-17T20:23:56.504Z,13.53
2018-12-17T20:26:35.622Z,10.03
2018-12-17T20:29:07.281Z,11.47
2018-12-17T20:31:42.915Z,16.03
2018-12-17T20:34:17.240Z,12.20
2018-12-17T20:36:50.451Z,12.60
2018-12-17T20:41:58.885Z,8.97
2018-12-17T20:44:29.393Z,10.37
2018-12-17T20:47:01.377Z,14.23
2018-12-17T20:49:30.244Z,12.03
2018-12-17T20:52:00.627Z,10.37
2018-12-17T20:54:31.200Z,11.47
2018-12-17T20:56:59.922Z,12.60
2018-12-17T20:59:28.663Z,10.47
2018-12-17T21:01:57.393Z,10.17
2018-12-17T21:04:26.148Z,12.13
2018-12-17T21:06:54.859Z,10.97
2018-12-17T21:09:23.666Z,10.10
2018-12-17T21:11:52.894Z,12.27
2018-12-17T21:14:23.859Z,10.33
2018-12-17T21:16:52.420Z,13.67
2018-12-17T21:19:21.116Z,12.73
2018-12-17T21:21:49.776Z,12.23
2018-12-17T21:24:18.494Z,13.93
2018-12-17T21:26:47.161Z,10.87
2018-12-17T21:29:15.835Z,14.33
2018-12-17T21:31:44.541Z,11.97
2018-12-17T21:34:13.366Z,10.23
2018-12-17T21:36:42.268Z,13.07
2018-12-17T21:39:10.923Z,14.30
2018-12-17T21:41:39.637Z,12.13
2018-12-17T21:44:08.343Z,12.10
2018-12-17T21:46:37.159Z,11.40
2018-12-17T21:49:05.889Z,18.60
2018-12-17T21:51:34.700Z,16.80
2018-12-17T21:54:03.410Z,8.97
2018-12-17T21:56:32.193Z,12.13
2018-12-17T21:59:00.867Z,12.17
2018-12-17T22:01:29.612Z,10.27
2018-12-17T22:03:58.306Z,10.30
2018-12-17T22:06:26.986Z,10.67
2018-12-17T22:08:55.600Z,13.13
2018-12-17T22:11:24.314Z,13.97
2018-12-17T22:13:53.023Z,14.00
2018-12-17T22:16:21.673Z,9.47
2018-12-17T22:18:50.396Z,15.20
2018-12-17T22:21:19.082Z,14.87
2018-12-17T22:23:47.735Z,17.03
2018-12-17T22:26:16.412Z,15.40
2018-12-17T22:28:45.050Z,13.10
2018-12-17T22:31:13.817Z,18.30
2018-12-17T22:33:42.526Z,15.87
2018-12-17T22:36:11.135Z,14.43
2018-12-17T22:38:39.839Z,14.13
2018-12-17T22:41:08.502Z,13.40
2018-12-17T22:43:37.121Z,16.13
2018-12-17T22:46:05.809Z,20.33
2018-12-17T22:48:35.162Z,22.23
2018-12-17T22:51:04.067Z,17.27
2018-12-17T22:53:32.755Z,17.97
2018-12-17T22:56:01.662Z,13.53
2018-12-17T22:58:30.276Z,15.97
2018-12-17T23:00:59.039Z,15.80
2018-12-17T23:03:27.779Z,16.87
2018-12-17T23:05:56.427Z,17.80
2018-12-17T23:08:25.083Z,16.30
2018-12-17T23:11:04.849Z,13.43
2018-12-17T23:13:44.628Z,15.87
2018-12-17T23:16:24.602Z,14.27
2018-12-17T23:18:52.139Z,19.00
2018-12-17T23:21:20.814Z,19.63
2018-12-17T23:23:49.614Z,15.73
2018-12-17T23:26:18.250Z,16.97
2018-12-17T23:28:47.043Z,16.57
2018-12-17T23:31:15.731Z,15.93
2018-12-17T23:33:44.492Z,17.37
2018-12-17T23:36:13.189Z,14.97
2018-12-17T23:38:41.819Z,17.00
2018-12-17T23:41:10.520Z,17.93
2018-12-17T23:43:39.338Z,17.87
2018-12-17T23:46:08.131Z,16.40
2018-12-17T23:48:36.795Z,19.93
2018-12-17T23:51:05.464Z,16.53
2018-12-17T23:53:34.173Z,14.80
2018-12-17T23:56:02.755Z,18.77
2018-12-17T23:58:31.404Z,17.30
